sensor_id;sensor_type;location;lat;lon;timestamp;P1;durP1;ratioP1;P2;durP2;ratioP2
21521;SDS011;10922;45.572;10.002;2023-04-24T00:01:27;4.03;;;3.63;;
21521;SDS011;10922;45.572;10.002;2023-04-24T00:03:54;3.20;;;2.90;;
21521;SDS011;10922;45.572;10.002;2023-04-24T00:06:24;9.03;;;3.87;;
21521;SDS011;10922;45.572;10.002;2023-04-24T00:08:57;4.07;;;3.10;;
21521;SDS011;10922;45.572;10.002;2023-04-24T00:11:24;6.40;;;3.50;;
21521;SDS011;10922;45.572;10.002;2023-04-24T00:13:50;3.77;;;3.30;;
21521;SDS011;10922;45.572;10.002;2023-04-24T00:16:16;5.80;;;3.50;;
21521;SDS011;10922;45.572;10.002;2023-04-24T00:18:41;5.23;;;3.23;;
21521;SDS011;10922;45.572;10.002;2023-04-24T00:21:07;4.10;;;3.50;;
21521;SDS011;10922;45.572;10.002;2023-04-24T00:23:33;3.57;;;3.23;;
21521;SDS011;10922;45.572;10.002;2023-04-24T00:25:58;4.07;;;3.70;;
21521;SDS011;10922;45.572;10.002;2023-04-24T00:28:24;3.70;;;3.40;;
21521;SDS011;10922;45.572;10.002;2023-04-24T00:30:49;4.60;;;4.13;;
21521;SDS011;10922;45.572;10.002;2023-04-24T00:33:15;4.97;;;3.63;;
21521;SDS011;10922;45.572;10.002;2023-04-24T00:35:41;5.23;;;3.93;;
21521;SDS011;10922;45.572;10.002;2023-04-24T00:38:06;4.17;;;3.50;;
21521;SDS011;10922;45.572;10.002;2023-04-24T00:40:32;9.43;;;4.30;;
21521;SDS011;10922;45.572;10.002;2023-04-24T00:42:58;5.50;;;3.90;;
21521;SDS011;10922;45.572;10.002;2023-04-24T00:45:23;3.70;;;3.37;;
21521;SDS011;10922;45.572;10.002;2023-04-24T00:47:49;6.33;;;3.47;;
21521;SDS011;10922;45.572;10.002;2023-04-24T00:50:17;5.80;;;4.30;;
21521;SDS011;10922;45.572;10.002;2023-04-24T00:52:44;6.03;;;3.77;;
21521;SDS011;10922;45.572;10.002;2023-04-24T00:55:10;3.80;;;3.50;;
21521;SDS011;10922;45.572;10.002;2023-04-24T00:57:36;3.80;;;3.50;;
21521;SDS011;10922;45.572;10.002;2023-04-24T01:00:03;6.30;;;5.13;;
21521;SDS011;10922;45.572;10.002;2023-04-24T01:02:30;8.47;;;6.70;;
21521;SDS011;10922;45.572;10.002;2023-04-24T01:04:59;11.40;;;7.20;;
21521;SDS011;10922;45.572;10.002;2023-04-24T01:07:26;8.20;;;6.73;;
21521;SDS011;10922;45.572;10.002;2023-04-24T01:09:52;9.07;;;6.17;;
21521;SDS011;10922;45.572;10.002;2023-04-24T01:12:18;11.13;;;5.63;;
21521;SDS011;10922;45.572;10.002;2023-04-24T01:14:44;6.60;;;5.90;;
21521;SDS011;10922;45.572;10.002;2023-04-24T01:17:10;8.77;;;6.33;;
21521;SDS011;10922;45.572;10.002;2023-04-24T01:19:36;10.37;;;7.23;;
21521;SDS011;10922;45.572;10.002;2023-04-24T01:22:02;11.23;;;8.37;;
21521;SDS011;10922;45.572;10.002;2023-04-24T01:24:33;11.37;;;9.33;;
21521;SDS011;10922;45.572;10.002;2023-04-24T01:26:59;11.90;;;9.80;;
21521;SDS011;10922;45.572;10.002;2023-04-24T01:29:26;13.03;;;10.00;;
21521;SDS011;10922;45.572;10.002;2023-04-24T01:31:52;13.43;;;10.40;;
21521;SDS011;10922;45.572;10.002;2023-04-24T01:34:18;13.10;;;10.87;;
21521;SDS011;10922;45.572;10.002;2023-04-24T01:36:45;17.97;;;13.07;;
21521;SDS011;10922;45.572;10.002;2023-04-24T01:39:11;17.13;;;12.53;;
21521;SDS011;10922;45.572;10.002;2023-04-24T01:41:37;17.47;;;12.73;;
21521;SDS011;10922;45.572;10.002;2023-04-24T01:44:03;14.77;;;12.47;;
21521;SDS011;10922;45.572;10.002;2023-04-24T01:46:29;15.80;;;13.20;;
21521;SDS011;10922;45.572;10.002;2023-04-24T01:48:56;14.73;;;12.50;;
21521;SDS011;10922;45.572;10.002;2023-04-24T01:51:24;16.13;;;11.27;;
21521;SDS011;10922;45.572;10.002;2023-04-24T01:53:50;15.33;;;12.70;;
21521;SDS011;10922;45.572;10.002;2023-04-24T01:56:16;14.00;;;11.97;;
21521;SDS011;10922;45.572;10.002;2023-04-24T01:58:42;13.90;;;11.37;;
21521;SDS011;10922;45.572;10.002;2023-04-24T02:01:09;15.60;;;11.27;;
21521;SDS011;10922;45.572;10.002;2023-04-24T02:03:40;13.83;;;9.70;;
21521;SDS011;10922;45.572;10.002;2023-04-24T02:06:06;15.03;;;10.53;;
21521;SDS011;10922;45.572;10.002;2023-04-24T02:08:31;12.17;;;10.53;;
21521;SDS011;10922;45.572;10.002;2023-04-24T02:10:57;13.03;;;9.80;;
21521;SDS011;10922;45.572;10.002;2023-04-24T02:13:22;11.17;;;9.23;;
21521;SDS011;10922;45.572;10.002;2023-04-24T02:15:48;12.90;;;8.67;;
21521;SDS011;10922;45.572;10.002;2023-04-24T02:18:14;10.93;;;9.17;;
21521;SDS011;10922;45.572;10.002;2023-04-24T02:20:40;10.20;;;9.07;;
21521;SDS011;10922;45.572;10.002;2023-04-24T02:23:06;10.03;;;8.90;;
21521;SDS011;10922;45.572;10.002;2023-04-24T02:25:31;10.70;;;8.10;;
21521;SDS011;10922;45.572;10.002;2023-04-24T02:27:58;11.57;;;8.23;;
21521;SDS011;10922;45.572;10.002;2023-04-24T02:30:24;9.37;;;8.27;;
21521;SDS011;10922;45.572;10.002;2023-04-24T02:32:49;9.90;;;7.60;;
21521;SDS011;10922;45.572;10.002;2023-04-24T02:35:15;8.40;;;7.13;;
21521;SDS011;10922;45.572;10.002;2023-04-24T02:37:41;7.83;;;6.87;;
21521;SDS011;10922;45.572;10.002;2023-04-24T02:40:07;8.30;;;6.73;;
21521;SDS011;10922;45.572;10.002;2023-04-24T02:42:33;8.63;;;6.47;;
21521;SDS011;10922;45.572;10.002;2023-04-24T02:44:59;10.43;;;7.37;;
21521;SDS011;10922;45.572;10.002;2023-04-24T02:47:25;8.97;;;7.40;;
21521;SDS011;10922;45.572;10.002;2023-04-24T02:49:50;11.13;;;8.33;;
21521;SDS011;10922;45.572;10.002;2023-04-24T02:52:16;8.70;;;6.63;;
21521;SDS011;10922;45.572;10.002;2023-04-24T02:54:43;7.07;;;6.30;;
21521;SDS011;10922;45.572;10.002;2023-04-24T02:57:09;9.23;;;6.60;;
21521;SDS011;10922;45.572;10.002;2023-04-24T02:59:35;7.27;;;6.23;;
21521;SDS011;10922;45.572;10.002;2023-04-24T03:02:00;7.97;;;7.17;;
21521;SDS011;10922;45.572;10.002;2023-04-24T03:04:26;7.17;;;6.43;;
21521;SDS011;10922;45.572;10.002;2023-04-24T03:06:52;9.50;;;7.33;;
21521;SDS011;10922;45.572;10.002;2023-04-24T03:09:19;7.80;;;6.17;;
21521;SDS011;10922;45.572;10.002;2023-04-24T03:11:46;8.97;;;6.70;;
21521;SDS011;10922;45.572;10.002;2023-04-24T03:14:11;8.77;;;6.60;;
21521;SDS011;10922;45.572;10.002;2023-04-24T03:16:37;9.13;;;6.33;;
21521;SDS011;10922;45.572;10.002;2023-04-24T03:19:03;7.17;;;6.13;;
21521;SDS011;10922;45.572;10.002;2023-04-24T03:21:29;7.50;;;6.57;;
21521;SDS011;10922;45.572;10.002;2023-04-24T03:23:54;7.70;;;6.20;;
21521;SDS011;10922;45.572;10.002;2023-04-24T03:26:20;7.97;;;6.70;;
21521;SDS011;10922;45.572;10.002;2023-04-24T03:28:45;8.73;;;7.37;;
21521;SDS011;10922;45.572;10.002;2023-04-24T03:31:11;10.20;;;7.10;;
21521;SDS011;10922;45.572;10.002;2023-04-24T03:33:37;15.53;;;8.33;;
21521;SDS011;10922;45.572;10.002;2023-04-24T03:36:02;13.00;;;9.17;;
21521;SDS011;10922;45.572;10.002;2023-04-24T03:38:30;11.90;;;9.57;;
21521;SDS011;10922;45.572;10.002;2023-04-24T03:40:55;13.30;;;10.60;;
21521;SDS011;10922;45.572;10.002;2023-04-24T03:43:21;10.73;;;8.50;;
21521;SDS011;10922;45.572;10.002;2023-04-24T03:45:46;12.57;;;8.67;;
21521;SDS011;10922;45.572;10.002;2023-04-24T03:48:12;10.50;;;7.60;;
21521;SDS011;10922;45.572;10.002;2023-04-24T03:50:38;11.70;;;8.73;;
21521;SDS011;10922;45.572;10.002;2023-04-24T03:53:03;13.50;;;9.07;;
21521;SDS011;10922;45.572;10.002;2023-04-24T03:55:29;10.57;;;9.27;;
21521;SDS011;10922;45.572;10.002;2023-04-24T03:57:55;9.67;;;8.27;;
21521;SDS011;10922;45.572;10.002;2023-04-24T04:00:20;11.60;;;8.33;;
21521;SDS011;10922;45.572;10.002;2023-04-24T04:02:46;10.43;;;8.10;;
21521;SDS011;10922;45.572;10.002;2023-04-24T04:05:12;8.27;;;6.37;;
21521;SDS011;10922;45.572;10.002;2023-04-24T04:07:37;9.10;;;7.20;;
21521;SDS011;10922;45.572;10.002;2023-04-24T04:10:03;8.67;;;6.20;;
21521;SDS011;10922;45.572;10.002;2023-04-24T04:12:29;7.87;;;5.40;;
21521;SDS011;10922;45.572;10.002;2023-04-24T04:14:55;6.97;;;4.67;;
21521;SDS011;10922;45.572;10.002;2023-04-24T04:17:21;7.13;;;4.87;;
21521;SDS011;10922;45.572;10.002;2023-04-24T04:19:46;5.30;;;4.77;;
21521;SDS011;10922;45.572;10.002;2023-04-24T04:22:12;5.47;;;4.67;;
21521;SDS011;10922;45.572;10.002;2023-04-24T04:24:37;6.50;;;4.53;;
21521;SDS011;10922;45.572;10.002;2023-04-24T04:27:05;4.97;;;4.57;;
21521;SDS011;10922;45.572;10.002;2023-04-24T04:29:31;4.40;;;4.00;;
21521;SDS011;10922;45.572;10.002;2023-04-24T04:31:57;4.27;;;3.60;;
21521;SDS011;10922;45.572;10.002;2023-04-24T04:34:23;4.63;;;4.23;;
21521;SDS011;10922;45.572;10.002;2023-04-24T04:36:49;5.93;;;4.53;;
21521;SDS011;10922;45.572;10.002;2023-04-24T04:39:15;4.63;;;4.17;;
21521;SDS011;10922;45.572;10.002;2023-04-24T04:41:42;4.30;;;3.90;;
21521;SDS011;10922;45.572;10.002;2023-04-24T04:44:09;4.50;;;4.10;;
21521;SDS011;10922;45.572;10.002;2023-04-24T04:46:34;4.33;;;3.93;;
21521;SDS011;10922;45.572;10.002;2023-04-24T04:49:02;10.67;;;4.20;;
21521;SDS011;10922;45.572;10.002;2023-04-24T04:51:27;4.20;;;3.80;;
21521;SDS011;10922;45.572;10.002;2023-04-24T04:53:53;3.23;;;3.03;;
21521;SDS011;10922;45.572;10.002;2023-04-24T04:56:19;3.50;;;3.20;;
21521;SDS011;10922;45.572;10.002;2023-04-24T04:58:45;4.33;;;3.93;;
21521;SDS011;10922;45.572;10.002;2023-04-24T05:01:11;4.13;;;3.83;;
21521;SDS011;10922;45.572;10.002;2023-04-24T05:03:37;3.30;;;3.00;;
21521;SDS011;10922;45.572;10.002;2023-04-24T05:06:03;3.20;;;2.87;;
21521;SDS011;10922;45.572;10.002;2023-04-24T05:08:29;2.63;;;2.43;;
21521;SDS011;10922;45.572;10.002;2023-04-24T05:10:54;2.77;;;2.57;;
21521;SDS011;10922;45.572;10.002;2023-04-24T05:13:20;2.43;;;2.23;;
21521;SDS011;10922;45.572;10.002;2023-04-24T05:15:46;2.50;;;2.30;;
21521;SDS011;10922;45.572;10.002;2023-04-24T05:18:12;3.77;;;2.37;;
21521;SDS011;10922;45.572;10.002;2023-04-24T05:20:37;3.17;;;2.90;;
21521;SDS011;10922;45.572;10.002;2023-04-24T05:23:03;2.53;;;2.33;;
21521;SDS011;10922;45.572;10.002;2023-04-24T05:25:29;2.70;;;2.50;;
21521;SDS011;10922;45.572;10.002;2023-04-24T05:27:57;2.00;;;1.90;;
21521;SDS011;10922;45.572;10.002;2023-04-24T05:30:22;2.43;;;2.17;;
21521;SDS011;10922;45.572;10.002;2023-04-24T05:32:48;2.10;;;2.00;;
21521;SDS011;10922;45.572;10.002;2023-04-24T05:35:14;2.23;;;2.03;;
21521;SDS011;10922;45.572;10.002;2023-04-24T05:37:39;2.17;;;2.07;;
21521;SDS011;10922;45.572;10.002;2023-04-24T05:40:05;2.10;;;2.00;;
21521;SDS011;10922;45.572;10.002;2023-04-24T05:42:31;2.13;;;1.80;;
21521;SDS011;10922;45.572;10.002;2023-04-24T05:44:57;1.80;;;1.43;;
21521;SDS011;10922;45.572;10.002;2023-04-24T05:47:23;1.37;;;1.27;;
21521;SDS011;10922;45.572;10.002;2023-04-24T05:49:48;1.50;;;0.97;;
21521;SDS011;10922;45.572;10.002;2023-04-24T05:52:14;1.17;;;1.07;;
21521;SDS011;10922;45.572;10.002;2023-04-24T05:54:40;0.70;;;0.70;;
21521;SDS011;10922;45.572;10.002;2023-04-24T05:57:05;1.70;;;0.60;;
21521;SDS011;10922;45.572;10.002;2023-04-24T05:59:41;3.30;;;1.00;;
21521;SDS011;10922;45.572;10.002;2023-04-24T06:02:07;1.33;;;0.70;;
21521;SDS011;10922;45.572;10.002;2023-04-24T06:04:33;1.60;;;0.80;;
21521;SDS011;10922;45.572;10.002;2023-04-24T06:06:59;0.50;;;0.50;;
21521;SDS011;10922;45.572;10.002;2023-04-24T06:09:25;0.70;;;0.50;;
21521;SDS011;10922;45.572;10.002;2023-04-24T06:11:51;0.60;;;0.60;;
21521;SDS011;10922;45.572;10.002;2023-04-24T06:14:21;1.23;;;0.70;;
21521;SDS011;10922;45.572;10.002;2023-04-24T06:16:48;0.77;;;0.73;;
21521;SDS011;10922;45.572;10.002;2023-04-24T06:19:14;0.50;;;0.50;;
21521;SDS011;10922;45.572;10.002;2023-04-24T06:21:39;0.70;;;0.70;;
21521;SDS011;10922;45.572;10.002;2023-04-24T06:24:05;1.20;;;0.50;;
21521;SDS011;10922;45.572;10.002;2023-04-24T06:26:31;0.50;;;0.50;;
21521;SDS011;10922;45.572;10.002;2023-04-24T06:28:56;0.40;;;0.40;;
21521;SDS011;10922;45.572;10.002;2023-04-24T06:31:24;0.60;;;0.60;;
21521;SDS011;10922;45.572;10.002;2023-04-24T06:33:49;0.50;;;0.50;;
21521;SDS011;10922;45.572;10.002;2023-04-24T06:36:15;0.43;;;0.43;;
21521;SDS011;10922;45.572;10.002;2023-04-24T06:38:41;0.57;;;0.57;;
21521;SDS011;10922;45.572;10.002;2023-04-24T06:41:07;0.63;;;0.60;;
21521;SDS011;10922;45.572;10.002;2023-04-24T06:43:33;0.50;;;0.50;;
21521;SDS011;10922;45.572;10.002;2023-04-24T06:45:59;0.67;;;0.67;;
21521;SDS011;10922;45.572;10.002;2023-04-24T06:48:25;0.90;;;0.40;;
21521;SDS011;10922;45.572;10.002;2023-04-24T06:50:51;3.50;;;0.90;;
21521;SDS011;10922;45.572;10.002;2023-04-24T06:53:17;0.80;;;0.60;;
21521;SDS011;10922;45.572;10.002;2023-04-24T06:55:43;0.70;;;0.70;;
21521;SDS011;10922;45.572;10.002;2023-04-24T06:58:11;0.80;;;0.60;;
21521;SDS011;10922;45.572;10.002;2023-04-24T07:00:37;1.13;;;0.80;;
21521;SDS011;10922;45.572;10.002;2023-04-24T07:03:03;0.50;;;0.50;;
21521;SDS011;10922;45.572;10.002;2023-04-24T07:05:30;0.97;;;0.83;;
21521;SDS011;10922;45.572;10.002;2023-04-24T07:07:58;1.53;;;0.60;;
21521;SDS011;10922;45.572;10.002;2023-04-24T07:10:24;0.70;;;0.70;;
21521;SDS011;10922;45.572;10.002;2023-04-24T07:12:52;0.53;;;0.53;;
21521;SDS011;10922;45.572;10.002;2023-04-24T07:15:17;1.37;;;0.53;;
21521;SDS011;10922;45.572;10.002;2023-04-24T07:17:43;0.80;;;0.80;;
21521;SDS011;10922;45.572;10.002;2023-04-24T07:20:10;0.80;;;0.80;;
21521;SDS011;10922;45.572;10.002;2023-04-24T07:22:39;0.60;;;0.60;;
21521;SDS011;10922;45.572;10.002;2023-04-24T07:25:05;0.67;;;0.67;;
21521;SDS011;10922;45.572;10.002;2023-04-24T07:27:32;1.73;;;0.73;;
21521;SDS011;10922;45.572;10.002;2023-04-24T07:29:58;2.13;;;0.90;;
21521;SDS011;10922;45.572;10.002;2023-04-24T07:32:24;0.90;;;0.90;;
21521;SDS011;10922;45.572;10.002;2023-04-24T07:34:50;1.30;;;0.80;;
21521;SDS011;10922;45.572;10.002;2023-04-24T07:37:15;0.70;;;0.70;;
21521;SDS011;10922;45.572;10.002;2023-04-24T07:39:41;0.73;;;0.70;;
21521;SDS011;10922;45.572;10.002;2023-04-24T07:42:07;1.07;;;0.97;;
21521;SDS011;10922;45.572;10.002;2023-04-24T07:44:33;0.97;;;0.97;;
21521;SDS011;10922;45.572;10.002;2023-04-24T07:46:58;0.63;;;0.63;;
21521;SDS011;10922;45.572;10.002;2023-04-24T07:49:24;0.87;;;0.87;;
21521;SDS011;10922;45.572;10.002;2023-04-24T07:51:50;2.27;;;1.37;;
21521;SDS011;10922;45.572;10.002;2023-04-24T07:54:16;1.33;;;1.10;;
21521;SDS011;10922;45.572;10.002;2023-04-24T07:56:43;1.30;;;1.30;;
21521;SDS011;10922;45.572;10.002;2023-04-24T07:59:09;1.90;;;1.80;;
21521;SDS011;10922;45.572;10.002;2023-04-24T08:01:36;1.57;;;1.47;;
21521;SDS011;10922;45.572;10.002;2023-04-24T08:04:01;3.17;;;1.67;;
21521;SDS011;10922;45.572;10.002;2023-04-24T08:06:27;1.67;;;1.57;;
21521;SDS011;10922;45.572;10.002;2023-04-24T08:08:55;2.13;;;1.83;;
21521;SDS011;10922;45.572;10.002;2023-04-24T08:11:21;2.30;;;2.10;;
21521;SDS011;10922;45.572;10.002;2023-04-24T08:13:47;2.93;;;2.10;;
21521;SDS011;10922;45.572;10.002;2023-04-24T08:16:12;1.70;;;1.60;;
21521;SDS011;10922;45.572;10.002;2023-04-24T08:18:38;1.83;;;1.73;;
21521;SDS011;10922;45.572;10.002;2023-04-24T08:21:04;2.03;;;1.93;;
21521;SDS011;10922;45.572;10.002;2023-04-24T08:23:30;3.27;;;2.97;;
21521;SDS011;10922;45.572;10.002;2023-04-24T08:25:55;2.97;;;2.77;;
21521;SDS011;10922;45.572;10.002;2023-04-24T08:28:22;5.60;;;5.10;;
21521;SDS011;10922;45.572;10.002;2023-04-24T08:30:47;9.60;;;6.80;;
21521;SDS011;10922;45.572;10.002;2023-04-24T08:33:13;8.43;;;7.50;;
21521;SDS011;10922;45.572;10.002;2023-04-24T08:35:40;7.87;;;6.70;;
21521;SDS011;10922;45.572;10.002;2023-04-24T08:38:06;6.77;;;6.13;;
21521;SDS011;10922;45.572;10.002;2023-04-24T08:40:32;6.63;;;6.03;;
21521;SDS011;10922;45.572;10.002;2023-04-24T08:42:59;6.93;;;5.47;;
21521;SDS011;10922;45.572;10.002;2023-04-24T08:45:25;5.30;;;4.90;;
21521;SDS011;10922;45.572;10.002;2023-04-24T08:47:54;7.87;;;5.47;;
21521;SDS011;10922;45.572;10.002;2023-04-24T08:50:21;8.97;;;6.67;;
21521;SDS011;10922;45.572;10.002;2023-04-24T08:52:49;6.30;;;5.80;;
21521;SDS011;10922;45.572;10.002;2023-04-24T08:55:15;5.57;;;4.93;;
21521;SDS011;10922;45.572;10.002;2023-04-24T08:57:45;4.87;;;4.47;;
21521;SDS011;10922;45.572;10.002;2023-04-24T09:00:14;6.03;;;5.30;;
21521;SDS011;10922;45.572;10.002;2023-04-24T09:02:44;5.90;;;5.30;;
21521;SDS011;10922;45.572;10.002;2023-04-24T09:05:12;6.13;;;5.53;;
21521;SDS011;10922;45.572;10.002;2023-04-24T09:07:39;5.57;;;5.07;;
21521;SDS011;10922;45.572;10.002;2023-04-24T09:10:06;5.00;;;4.57;;
21521;SDS011;10922;45.572;10.002;2023-04-24T09:12:34;7.97;;;5.30;;
21521;SDS011;10922;45.572;10.002;2023-04-24T09:15:00;5.07;;;4.57;;
21521;SDS011;10922;45.572;10.002;2023-04-24T09:17:28;6.93;;;5.30;;
21521;SDS011;10922;45.572;10.002;2023-04-24T09:19:55;5.13;;;4.63;;
21521;SDS011;10922;45.572;10.002;2023-04-24T09:22:21;5.50;;;5.00;;
21521;SDS011;10922;45.572;10.002;2023-04-24T09:24:46;5.57;;;5.07;;
21521;SDS011;10922;45.572;10.002;2023-04-24T09:27:13;6.43;;;4.70;;
21521;SDS011;10922;45.572;10.002;2023-04-24T09:30:03;4.40;;;4.10;;
21521;SDS011;10922;45.572;10.002;2023-04-24T09:32:27;4.40;;;4.00;;
21521;SDS011;10922;45.572;10.002;2023-04-24T09:35:05;4.03;;;3.73;;
21521;SDS011;10922;45.572;10.002;2023-04-24T09:37:39;4.40;;;4.00;;
21521;SDS011;10922;45.572;10.002;2023-04-24T09:40:28;4.17;;;3.87;;
21521;SDS011;10922;45.572;10.002;2023-04-24T09:42:55;4.70;;;4.30;;
21521;SDS011;10922;45.572;10.002;2023-04-24T09:45:34;4.67;;;4.20;;
21521;SDS011;10922;45.572;10.002;2023-04-24T09:48:01;5.03;;;3.80;;
21521;SDS011;10922;45.572;10.002;2023-04-24T09:50:29;5.13;;;4.60;;
21521;SDS011;10922;45.572;10.002;2023-04-24T09:53:01;5.70;;;4.00;;
21521;SDS011;10922;45.572;10.002;2023-04-24T09:55:28;4.10;;;3.80;;
21521;SDS011;10922;45.572;10.002;2023-04-24T09:57:56;4.40;;;3.97;;
21521;SDS011;10922;45.572;10.002;2023-04-24T10:00:26;3.57;;;3.27;;
21521;SDS011;10922;45.572;10.002;2023-04-24T10:02:57;3.93;;;3.63;;
21521;SDS011;10922;45.572;10.002;2023-04-24T10:05:24;4.50;;;3.23;;
21521;SDS011;10922;45.572;10.002;2023-04-24T10:07:55;4.47;;;4.07;;
21521;SDS011;10922;45.572;10.002;2023-04-24T10:10:22;6.00;;;4.50;;
21521;SDS011;10922;45.572;10.002;2023-04-24T10:12:48;5.83;;;4.20;;
21521;SDS011;10922;45.572;10.002;2023-04-24T10:15:16;4.57;;;4.17;;
21521;SDS011;10922;45.572;10.002;2023-04-24T10:17:46;4.47;;;3.90;;
21521;SDS011;10922;45.572;10.002;2023-04-24T10:20:21;5.10;;;4.60;;
21521;SDS011;10922;45.572;10.002;2023-04-24T10:22:49;5.20;;;4.70;;
21521;SDS011;10922;45.572;10.002;2023-04-24T10:25:19;3.97;;;3.67;;
21521;SDS011;10922;45.572;10.002;2023-04-24T10:27:47;6.73;;;3.77;;
21521;SDS011;10922;45.572;10.002;2023-04-24T10:30:13;4.13;;;3.70;;
21521;SDS011;10922;45.572;10.002;2023-04-24T10:32:40;5.80;;;5.33;;
21521;SDS011;10922;45.572;10.002;2023-04-24T10:35:06;5.23;;;4.80;;
21521;SDS011;10922;45.572;10.002;2023-04-24T10:37:49;6.20;;;5.70;;
21521;SDS011;10922;45.572;10.002;2023-04-24T10:40:33;6.90;;;4.90;;
21521;SDS011;10922;45.572;10.002;2023-04-24T10:43:04;4.43;;;3.90;;
21521;SDS011;10922;45.572;10.002;2023-04-24T10:45:33;4.13;;;3.83;;
21521;SDS011;10922;45.572;10.002;2023-04-24T10:48:01;3.93;;;3.63;;
21521;SDS011;10922;45.572;10.002;2023-04-24T10:50:51;3.93;;;3.63;;
21521;SDS011;10922;45.572;10.002;2023-04-24T10:53:20;3.60;;;3.30;;
21521;SDS011;10922;45.572;10.002;2023-04-24T10:56:05;2.80;;;2.60;;
21521;SDS011;10922;45.572;10.002;2023-04-24T10:58:36;2.90;;;2.70;;
21521;SDS011;10922;45.572;10.002;2023-04-24T11:01:05;2.97;;;2.77;;
21521;SDS011;10922;45.572;10.002;2023-04-24T11:03:32;2.70;;;2.50;;
21521;SDS011;10922;45.572;10.002;2023-04-24T11:06:03;2.87;;;2.67;;
21521;SDS011;10922;45.572;10.002;2023-04-24T11:08:40;2.30;;;2.10;;
21521;SDS011;10922;45.572;10.002;2023-04-24T11:11:15;2.80;;;2.60;;
21521;SDS011;10922;45.572;10.002;2023-04-24T11:16:21;3.00;;;2.80;;
21521;SDS011;10922;45.572;10.002;2023-04-24T11:18:50;3.20;;;3.00;;
21521;SDS011;10922;45.572;10.002;2023-04-24T11:21:19;3.20;;;2.90;;
21521;SDS011;10922;45.572;10.002;2023-04-24T11:23:46;3.30;;;3.10;;
21521;SDS011;10922;45.572;10.002;2023-04-24T11:26:18;4.50;;;2.33;;
21521;SDS011;10922;45.572;10.002;2023-04-24T11:28:49;6.47;;;3.03;;
21521;SDS011;10922;45.572;10.002;2023-04-24T11:34:07;3.33;;;3.07;;
21521;SDS011;10922;45.572;10.002;2023-04-24T11:36:38;3.13;;;2.93;;
21521;SDS011;10922;45.572;10.002;2023-04-24T11:39:04;3.30;;;3.00;;
21521;SDS011;10922;45.572;10.002;2023-04-24T11:41:30;3.20;;;2.90;;
21521;SDS011;10922;45.572;10.002;2023-04-24T11:43:56;3.47;;;3.17;;
21521;SDS011;10922;45.572;10.002;2023-04-24T11:46:23;3.93;;;3.60;;
21521;SDS011;10922;45.572;10.002;2023-04-24T11:48:52;5.10;;;4.20;;
21521;SDS011;10922;45.572;10.002;2023-04-24T11:51:18;4.20;;;3.83;;
21521;SDS011;10922;45.572;10.002;2023-04-24T11:53:43;3.70;;;3.40;;
21521;SDS011;10922;45.572;10.002;2023-04-24T11:56:09;4.20;;;3.90;;
21521;SDS011;10922;45.572;10.002;2023-04-24T11:58:37;4.30;;;3.90;;
21521;SDS011;10922;45.572;10.002;2023-04-24T12:01:04;4.30;;;3.90;;
21521;SDS011;10922;45.572;10.002;2023-04-24T12:03:30;5.50;;;4.93;;
21521;SDS011;10922;45.572;10.002;2023-04-24T12:06:06;5.60;;;5.10;;
21521;SDS011;10922;45.572;10.002;2023-04-24T12:08:35;5.83;;;5.33;;
21521;SDS011;10922;45.572;10.002;2023-04-24T12:11:04;5.73;;;5.33;;
21521;SDS011;10922;45.572;10.002;2023-04-24T12:13:35;5.63;;;5.23;;
21521;SDS011;10922;45.572;10.002;2023-04-24T12:16:01;6.10;;;5.13;;
21521;SDS011;10922;45.572;10.002;2023-04-24T12:18:29;5.63;;;5.13;;
21521;SDS011;10922;45.572;10.002;2023-04-24T12:20:54;7.00;;;6.40;;
21521;SDS011;10922;45.572;10.002;2023-04-24T12:23:33;7.07;;;6.47;;
21521;SDS011;10922;45.572;10.002;2023-04-24T12:26:00;6.90;;;6.13;;
21521;SDS011;10922;45.572;10.002;2023-04-24T12:28:34;6.67;;;5.97;;
21521;SDS011;10922;45.572;10.002;2023-04-24T12:31:01;7.40;;;6.70;;
21521;SDS011;10922;45.572;10.002;2023-04-24T12:33:27;8.33;;;7.63;;
21521;SDS011;10922;45.572;10.002;2023-04-24T12:35:57;8.43;;;7.63;;
21521;SDS011;10922;45.572;10.002;2023-04-24T12:38:24;6.93;;;6.17;;
21521;SDS011;10922;45.572;10.002;2023-04-24T12:41:04;8.63;;;7.83;;
21521;SDS011;10922;45.572;10.002;2023-04-24T12:43:32;8.17;;;7.37;;
21521;SDS011;10922;45.572;10.002;2023-04-24T12:45:57;8.20;;;7.50;;
21521;SDS011;10922;45.572;10.002;2023-04-24T12:48:24;8.30;;;7.50;;
21521;SDS011;10922;45.572;10.002;2023-04-24T12:50:51;8.30;;;7.50;;
21521;SDS011;10922;45.572;10.002;2023-04-24T12:53:16;7.70;;;7.00;;
21521;SDS011;10922;45.572;10.002;2023-04-24T12:55:42;9.67;;;8.03;;
21521;SDS011;10922;45.572;10.002;2023-04-24T12:58:09;8.50;;;7.72;;
21521;SDS011;10922;45.572;10.002;2023-04-24T13:00:35;8.70;;;7.80;;
21521;SDS011;10922;45.572;10.002;2023-04-24T13:03:01;8.60;;;7.80;;
21521;SDS011;10922;45.572;10.002;2023-04-24T13:05:27;7.30;;;6.70;;
21521;SDS011;10922;45.572;10.002;2023-04-24T13:07:53;7.95;;;7.20;;
21521;SDS011;10922;45.572;10.002;2023-04-24T13:10:19;6.65;;;6.15;;
21521;SDS011;10922;45.572;10.002;2023-04-24T13:12:46;7.47;;;6.72;;
21521;SDS011;10922;45.572;10.002;2023-04-24T13:15:12;6.95;;;6.25;;
21521;SDS011;10922;45.572;10.002;2023-04-24T13:17:38;8.52;;;7.72;;
21521;SDS011;10922;45.572;10.002;2023-04-24T13:20:04;7.68;;;6.97;;
21521;SDS011;10922;45.572;10.002;2023-04-24T13:22:30;6.60;;;6.00;;
21521;SDS011;10922;45.572;10.002;2023-04-24T13:24:55;6.30;;;5.80;;
21521;SDS011;10922;45.572;10.002;2023-04-24T13:27:22;6.45;;;5.88;;
21521;SDS011;10922;45.572;10.002;2023-04-24T13:29:47;6.22;;;5.72;;
21521;SDS011;10922;45.572;10.002;2023-04-24T13:32:13;5.78;;;5.28;;
21521;SDS011;10922;45.572;10.002;2023-04-24T13:34:39;4.55;;;4.25;;
21521;SDS011;10922;45.572;10.002;2023-04-24T13:37:05;4.10;;;3.80;;
21521;SDS011;10922;45.572;10.002;2023-04-24T13:39:31;5.15;;;4.75;;
21521;SDS011;10922;45.572;10.002;2023-04-24T13:41:57;4.45;;;4.15;;
21521;SDS011;10922;45.572;10.002;2023-04-24T13:44:23;5.30;;;4.90;;
21521;SDS011;10922;45.572;10.002;2023-04-24T13:46:50;4.18;;;3.72;;
21521;SDS011;10922;45.572;10.002;2023-04-24T13:49:18;0.57;;;0.57;;
21521;SDS011;10922;45.572;10.002;2023-04-24T13:51:45;2.05;;;0.68;;
21521;SDS011;10922;45.572;10.002;2023-04-24T13:54:11;1.33;;;0.38;;
21521;SDS011;10922;45.572;10.002;2023-04-24T13:56:37;0.10;;;0.10;;
21521;SDS011;10922;45.572;10.002;2023-04-24T13:59:06;0.45;;;0.45;;
21521;SDS011;10922;45.572;10.002;2023-04-24T14:01:33;0.93;;;0.47;;
21521;SDS011;10922;45.572;10.002;2023-04-24T14:03:59;0.47;;;0.47;;
21521;SDS011;10922;45.572;10.002;2023-04-24T14:06:24;1.23;;;0.30;;
21521;SDS011;10922;45.572;10.002;2023-04-24T14:08:51;0.45;;;0.45;;
21521;SDS011;10922;45.572;10.002;2023-04-24T14:11:17;3.47;;;0.80;;
21521;SDS011;10922;45.572;10.002;2023-04-24T14:13:44;2.67;;;0.47;;
21521;SDS011;10922;45.572;10.002;2023-04-24T14:16:10;3.27;;;0.73;;
21521;SDS011;10922;45.572;10.002;2023-04-24T14:18:36;1.57;;;1.10;;
21521;SDS011;10922;45.572;10.002;2023-04-24T14:21:02;0.83;;;0.70;;
21521;SDS011;10922;45.572;10.002;2023-04-24T14:23:29;2.23;;;0.97;;
21521;SDS011;10922;45.572;10.002;2023-04-24T14:25:55;1.90;;;1.00;;
21521;SDS011;10922;45.572;10.002;2023-04-24T14:28:22;0.53;;;0.50;;
21521;SDS011;10922;45.572;10.002;2023-04-24T14:30:48;1.13;;;0.63;;
21521;SDS011;10922;45.572;10.002;2023-04-24T14:33:14;0.55;;;0.40;;
21521;SDS011;10922;45.572;10.002;2023-04-24T14:35:40;0.30;;;0.30;;
21521;SDS011;10922;45.572;10.002;2023-04-24T14:38:10;0.32;;;0.32;;